Banderalo, Argentina
Current Conditions -  °F | °C
As of 1:00 AM on Tuesday 21 Oct 2014 (Local Time) from SAOC Reporting Station
Clear Clear  
Wind Chill: 70°   Ceiling: Unl
Heat Index: 70°   Visibility: 6mi
Dew Point: 45°   Wind: 13mph
Humidity: 40%   Direction: 360°N
Pressure: 30.03"   Gusts: NA
Location:  35.01°S, 63.37°W
Report Text: SAOC 210400Z 36011KT CAVOK 21/07 Q1017
Loading
Personal Weather Stations






























Interactive Weather Map
Tropical Storm Tracking
New forecast layout! Learn more

10-Day Weather Forecast

Advertisements
Track Severe Weather on mobile